sensor_id;sensor_type;location;lat;lon;timestamp;P1;durP1;ratioP1;P2;durP2;ratioP2
22176;SDS011;11254;50.098;8.726;2023-11-19T00:54:42;11.07;;;5.93;;
22176;SDS011;11254;50.098;8.726;2023-11-19T00:57:11;11.30;;;5.80;;
22176;SDS011;11254;50.098;8.726;2023-11-19T00:59:41;11.25;;;6.10;;
22176;SDS011;11254;50.098;8.726;2023-11-19T01:02:09;11.05;;;5.97;;
22176;SDS011;11254;50.098;8.726;2023-11-19T01:04:41;10.43;;;6.00;;
22176;SDS011;11254;50.098;8.726;2023-11-19T01:07:11;11.57;;;6.13;;
22176;SDS011;11254;50.098;8.726;2023-11-19T01:09:42;10.05;;;6.22;;
22176;SDS011;11254;50.098;8.726;2023-11-19T01:12:11;10.80;;;5.82;;
22176;SDS011;11254;50.098;8.726;2023-11-19T01:14:40;9.20;;;5.35;;
22176;SDS011;11254;50.098;8.726;2023-11-19T01:17:09;11.25;;;5.60;;
22176;SDS011;11254;50.098;8.726;2023-11-19T01:19:38;10.32;;;5.60;;
22176;SDS011;11254;50.098;8.726;2023-11-19T01:22:07;10.05;;;5.57;;
22176;SDS011;11254;50.098;8.726;2023-11-19T01:24:35;10.10;;;5.80;;
22176;SDS011;11254;50.098;8.726;2023-11-19T01:27:06;10.82;;;5.88;;
22176;SDS011;11254;50.098;8.726;2023-11-19T01:29:35;9.20;;;5.60;;
22176;SDS011;11254;50.098;8.726;2023-11-19T01:32:05;11.88;;;5.65;;
22176;SDS011;11254;50.098;8.726;2023-11-19T01:34:34;10.90;;;6.07;;
22176;SDS011;11254;50.098;8.726;2023-11-19T01:37:03;10.05;;;5.20;;
22176;SDS011;11254;50.098;8.726;2023-11-19T01:39:32;10.25;;;5.82;;
22176;SDS011;11254;50.098;8.726;2023-11-19T01:42:01;10.02;;;5.57;;
22176;SDS011;11254;50.098;8.726;2023-11-19T01:44:31;9.77;;;5.32;;
22176;SDS011;11254;50.098;8.726;2023-11-19T01:47:00;10.05;;;5.25;;
22176;SDS011;11254;50.098;8.726;2023-11-19T01:49:30;8.07;;;4.97;;
22176;SDS011;11254;50.098;8.726;2023-11-19T01:51:59;9.20;;;5.03;;
22176;SDS011;11254;50.098;8.726;2023-11-19T01:54:28;8.43;;;4.72;;
22176;SDS011;11254;50.098;8.726;2023-11-19T01:56:57;8.20;;;4.55;;
22176;SDS011;11254;50.098;8.726;2023-11-19T01:59:27;7.68;;;4.80;;
22176;SDS011;11254;50.098;8.726;2023-11-19T02:01:58;10.73;;;5.13;;
22176;SDS011;11254;50.098;8.726;2023-11-19T02:04:27;8.38;;;4.68;;
22176;SDS011;11254;50.098;8.726;2023-11-19T02:06:56;8.75;;;4.57;;
22176;SDS011;11254;50.098;8.726;2023-11-19T02:09:26;7.97;;;4.72;;
22176;SDS011;11254;50.098;8.726;2023-11-19T02:11:56;9.23;;;4.55;;
22176;SDS011;11254;50.098;8.726;2023-11-19T02:14:25;7.43;;;4.13;;
22176;SDS011;11254;50.098;8.726;2023-11-19T02:16:55;7.40;;;4.50;;
22176;SDS011;11254;50.098;8.726;2023-11-19T02:19:25;6.97;;;4.00;;
22176;SDS011;11254;50.098;8.726;2023-11-19T02:21:54;8.93;;;3.92;;
22176;SDS011;11254;50.098;8.726;2023-11-19T02:24:23;7.50;;;3.75;;
22176;SDS011;11254;50.098;8.726;2023-11-19T02:26:55;7.65;;;3.65;;
22176;SDS011;11254;50.098;8.726;2023-11-19T02:29:28;8.15;;;3.95;;
22176;SDS011;11254;50.098;8.726;2023-11-19T02:31:57;7.07;;;3.78;;
22176;SDS011;11254;50.098;8.726;2023-11-19T02:34:26;7.85;;;3.45;;
22176;SDS011;11254;50.098;8.726;2023-11-19T02:36:55;6.47;;;3.72;;
22176;SDS011;11254;50.098;8.726;2023-11-19T02:39:24;7.10;;;3.53;;
22176;SDS011;11254;50.098;8.726;2023-11-19T02:41:55;6.85;;;3.38;;
22176;SDS011;11254;50.098;8.726;2023-11-19T02:44:25;8.65;;;3.88;;
22176;SDS011;11254;50.098;8.726;2023-11-19T02:46:56;5.65;;;3.40;;
22176;SDS011;11254;50.098;8.726;2023-11-19T02:49:26;6.18;;;3.35;;
22176;SDS011;11254;50.098;8.726;2023-11-19T02:51:55;5.95;;;3.40;;
22176;SDS011;11254;50.098;8.726;2023-11-19T02:54:26;8.82;;;3.83;;
22176;SDS011;11254;50.098;8.726;2023-11-19T02:56:54;6.78;;;3.10;;
22176;SDS011;11254;50.098;8.726;2023-11-19T02:59:26;5.47;;;3.22;;
22176;SDS011;11254;50.098;8.726;2023-11-19T03:02:06;8.00;;;3.30;;
22176;SDS011;11254;50.098;8.726;2023-11-19T03:04:38;5.82;;;3.22;;
22176;SDS011;11254;50.098;8.726;2023-11-19T03:07:07;6.28;;;3.33;;
22176;SDS011;11254;50.098;8.726;2023-11-19T03:09:35;5.78;;;3.20;;
22176;SDS011;11254;50.098;8.726;2023-11-19T03:12:07;5.82;;;3.08;;
22176;SDS011;11254;50.098;8.726;2023-11-19T03:14:35;5.10;;;2.90;;
22176;SDS011;11254;50.098;8.726;2023-11-19T03:17:04;5.03;;;2.67;;
22176;SDS011;11254;50.098;8.726;2023-11-19T03:19:34;5.68;;;3.17;;
22176;SDS011;11254;50.098;8.726;2023-11-19T03:22:03;7.40;;;2.90;;
22176;SDS011;11254;50.098;8.726;2023-11-19T03:24:31;5.18;;;2.90;;
22176;SDS011;11254;50.098;8.726;2023-11-19T03:27:00;7.03;;;3.10;;
22176;SDS011;11254;50.098;8.726;2023-11-19T03:29:30;10.55;;;3.30;;
22176;SDS011;11254;50.098;8.726;2023-11-19T03:32:10;5.68;;;2.58;;
22176;SDS011;11254;50.098;8.726;2023-11-19T03:34:41;4.93;;;2.72;;
22176;SDS011;11254;50.098;8.726;2023-11-19T03:37:10;5.15;;;3.10;;
22176;SDS011;11254;50.098;8.726;2023-11-19T03:39:39;6.07;;;3.58;;
22176;SDS011;11254;50.098;8.726;2023-11-19T03:42:07;6.65;;;3.28;;
22176;SDS011;11254;50.098;8.726;2023-11-19T03:44:36;6.32;;;3.45;;
22176;SDS011;11254;50.098;8.726;2023-11-19T03:47:08;6.35;;;3.45;;
22176;SDS011;11254;50.098;8.726;2023-11-19T03:49:41;7.28;;;3.45;;
22176;SDS011;11254;50.098;8.726;2023-11-19T03:52:10;5.75;;;3.53;;
22176;SDS011;11254;50.098;8.726;2023-11-19T03:54:46;6.32;;;3.80;;
22176;SDS011;11254;50.098;8.726;2023-11-19T03:57:15;5.07;;;3.00;;
22176;SDS011;11254;50.098;8.726;2023-11-19T03:59:43;6.30;;;3.58;;
22176;SDS011;11254;50.098;8.726;2023-11-19T04:02:12;6.57;;;3.45;;
22176;SDS011;11254;50.098;8.726;2023-11-19T04:04:42;5.35;;;3.50;;
22176;SDS011;11254;50.098;8.726;2023-11-19T04:07:11;5.97;;;3.63;;
22176;SDS011;11254;50.098;8.726;2023-11-19T04:09:42;8.18;;;3.67;;
22176;SDS011;11254;50.098;8.726;2023-11-19T04:12:17;4.95;;;2.97;;
22176;SDS011;11254;50.098;8.726;2023-11-19T04:14:46;4.88;;;2.97;;
22176;SDS011;11254;50.098;8.726;2023-11-19T04:17:27;5.65;;;3.30;;
22176;SDS011;11254;50.098;8.726;2023-11-19T04:19:57;4.93;;;3.03;;
22176;SDS011;11254;50.098;8.726;2023-11-19T04:22:26;6.10;;;3.55;;
22176;SDS011;11254;50.098;8.726;2023-11-19T04:24:54;5.82;;;3.90;;
22176;SDS011;11254;50.098;8.726;2023-11-19T04:27:23;5.38;;;3.25;;
22176;SDS011;11254;50.098;8.726;2023-11-19T04:29:51;6.05;;;3.35;;
22176;SDS011;11254;50.098;8.726;2023-11-19T04:32:22;5.57;;;3.20;;
22176;SDS011;11254;50.098;8.726;2023-11-19T04:34:52;6.38;;;3.30;;
22176;SDS011;11254;50.098;8.726;2023-11-19T04:37:22;4.93;;;2.72;;
22176;SDS011;11254;50.098;8.726;2023-11-19T04:39:51;5.45;;;2.97;;
22176;SDS011;11254;50.098;8.726;2023-11-19T04:42:21;5.57;;;2.80;;
22176;SDS011;11254;50.098;8.726;2023-11-19T04:44:50;5.82;;;3.30;;
22176;SDS011;11254;50.098;8.726;2023-11-19T04:47:33;4.78;;;2.97;;
22176;SDS011;11254;50.098;8.726;2023-11-19T04:50:01;4.57;;;2.78;;
22176;SDS011;11254;50.098;8.726;2023-11-19T04:52:32;8.68;;;3.40;;
22176;SDS011;11254;50.098;8.726;2023-11-19T04:55:01;6.35;;;3.40;;
22176;SDS011;11254;50.098;8.726;2023-11-19T04:57:30;7.10;;;3.78;;
22176;SDS011;11254;50.098;8.726;2023-11-19T04:59:59;9.70;;;3.65;;
22176;SDS011;11254;50.098;8.726;2023-11-19T05:02:28;5.55;;;3.20;;
22176;SDS011;11254;50.098;8.726;2023-11-19T05:04:56;5.90;;;3.45;;
22176;SDS011;11254;50.098;8.726;2023-11-19T05:07:25;5.13;;;2.92;;
22176;SDS011;11254;50.098;8.726;2023-11-19T05:09:55;6.88;;;3.35;;
22176;SDS011;11254;50.098;8.726;2023-11-19T05:12:25;6.57;;;3.00;;
22176;SDS011;11254;50.098;8.726;2023-11-19T05:14:53;6.38;;;3.47;;
22176;SDS011;11254;50.098;8.726;2023-11-19T05:17:22;4.97;;;2.80;;
22176;SDS011;11254;50.098;8.726;2023-11-19T05:19:50;5.20;;;2.95;;
22176;SDS011;11254;50.098;8.726;2023-11-19T05:22:20;5.40;;;2.90;;
22176;SDS011;11254;50.098;8.726;2023-11-19T05:24:48;5.53;;;3.33;;
22176;SDS011;11254;50.098;8.726;2023-11-19T05:27:18;5.60;;;2.80;;
22176;SDS011;11254;50.098;8.726;2023-11-19T05:29:47;7.43;;;2.63;;
22176;SDS011;11254;50.098;8.726;2023-11-19T05:32:16;5.15;;;2.80;;
22176;SDS011;11254;50.098;8.726;2023-11-19T05:34:44;4.68;;;2.97;;
22176;SDS011;11254;50.098;8.726;2023-11-19T05:37:15;5.13;;;2.88;;
22176;SDS011;11254;50.098;8.726;2023-11-19T05:39:45;8.80;;;3.13;;
22176;SDS011;11254;50.098;8.726;2023-11-19T05:42:13;6.50;;;3.55;;
22176;SDS011;11254;50.098;8.726;2023-11-19T05:44:44;6.15;;;3.40;;
22176;SDS011;11254;50.098;8.726;2023-11-19T05:47:12;6.50;;;4.00;;
22176;SDS011;11254;50.098;8.726;2023-11-19T05:49:41;11.93;;;6.22;;
22176;SDS011;11254;50.098;8.726;2023-11-19T05:52:10;9.30;;;5.65;;
22176;SDS011;11254;50.098;8.726;2023-11-19T05:54:39;39.35;;;19.70;;
22176;SDS011;11254;50.098;8.726;2023-11-19T05:57:08;71.95;;;39.40;;
22176;SDS011;11254;50.098;8.726;2023-11-19T05:59:36;43.60;;;21.70;;
22176;SDS011;11254;50.098;8.726;2023-11-19T06:02:06;47.30;;;27.00;;
22176;SDS011;11254;50.098;8.726;2023-11-19T06:04:35;29.35;;;16.42;;
22176;SDS011;11254;50.098;8.726;2023-11-19T06:07:04;12.75;;;8.68;;
22176;SDS011;11254;50.098;8.726;2023-11-19T06:09:32;8.30;;;4.72;;
22176;SDS011;11254;50.098;8.726;2023-11-19T06:12:01;8.93;;;5.18;;
22176;SDS011;11254;50.098;8.726;2023-11-19T06:14:30;8.43;;;5.63;;
22176;SDS011;11254;50.098;8.726;2023-11-19T06:16:59;7.57;;;4.78;;
22176;SDS011;11254;50.098;8.726;2023-11-19T06:19:29;7.78;;;4.80;;
22176;SDS011;11254;50.098;8.726;2023-11-19T06:21:57;7.43;;;4.32;;
22176;SDS011;11254;50.098;8.726;2023-11-19T06:24:26;7.43;;;4.32;;
22176;SDS011;11254;50.098;8.726;2023-11-19T06:26:55;10.02;;;4.97;;
22176;SDS011;11254;50.098;8.726;2023-11-19T06:29:23;7.10;;;5.03;;
22176;SDS011;11254;50.098;8.726;2023-11-19T06:31:52;7.07;;;4.50;;
22176;SDS011;11254;50.098;8.726;2023-11-19T06:34:21;6.30;;;4.10;;
22176;SDS011;11254;50.098;8.726;2023-11-19T06:36:51;7.00;;;4.10;;
22176;SDS011;11254;50.098;8.726;2023-11-19T06:39:20;7.32;;;4.07;;
22176;SDS011;11254;50.098;8.726;2023-11-19T06:41:48;8.52;;;4.43;;
22176;SDS011;11254;50.098;8.726;2023-11-19T06:44:17;8.13;;;4.68;;
22176;SDS011;11254;50.098;8.726;2023-11-19T06:46:46;7.13;;;4.80;;
22176;SDS011;11254;50.098;8.726;2023-11-19T06:49:14;6.45;;;4.07;;
22176;SDS011;11254;50.098;8.726;2023-11-19T22:00:17;17.08;;;3.35;;
22176;SDS011;11254;50.098;8.726;2023-11-19T22:02:50;16.67;;;2.55;;
22176;SDS011;11254;50.098;8.726;2023-11-19T22:05:29;10.93;;;2.38;;
22176;SDS011;11254;50.098;8.726;2023-11-19T22:07:58;10.00;;;1.90;;
22176;SDS011;11254;50.098;8.726;2023-11-19T22:10:29;11.63;;;2.55;;
22176;SDS011;11254;50.098;8.726;2023-11-19T22:12:59;11.98;;;2.67;;
22176;SDS011;11254;50.098;8.726;2023-11-19T22:15:29;11.35;;;2.20;;
22176;SDS011;11254;50.098;8.726;2023-11-19T22:17:59;12.80;;;2.20;;
22176;SDS011;11254;50.098;8.726;2023-11-19T22:20:28;9.38;;;1.88;;
22176;SDS011;11254;50.098;8.726;2023-11-19T22:23:01;11.27;;;1.92;;
22176;SDS011;11254;50.098;8.726;2023-11-19T22:25:31;12.85;;;2.88;;
22176;SDS011;11254;50.098;8.726;2023-11-19T22:28:00;11.65;;;4.47;;
22176;SDS011;11254;50.098;8.726;2023-11-19T22:30:31;10.48;;;1.80;;
22176;SDS011;11254;50.098;8.726;2023-11-19T22:33:00;13.70;;;2.88;;
22176;SDS011;11254;50.098;8.726;2023-11-19T22:35:30;15.77;;;2.17;;
22176;SDS011;11254;50.098;8.726;2023-11-19T22:37:59;10.60;;;2.10;;
22176;SDS011;11254;50.098;8.726;2023-11-19T22:40:28;12.85;;;2.33;;
22176;SDS011;11254;50.098;8.726;2023-11-19T22:42:58;11.18;;;2.17;;
22176;SDS011;11254;50.098;8.726;2023-11-19T22:45:27;14.30;;;2.00;;
22176;SDS011;11254;50.098;8.726;2023-11-19T22:47:57;11.02;;;2.05;;
22176;SDS011;11254;50.098;8.726;2023-11-19T22:50:27;16.17;;;2.58;;
22176;SDS011;11254;50.098;8.726;2023-11-19T22:53:01;14.05;;;2.13;;
22176;SDS011;11254;50.098;8.726;2023-11-19T22:55:31;10.32;;;1.75;;
22176;SDS011;11254;50.098;8.726;2023-11-19T22:58:00;14.20;;;2.90;;
22176;SDS011;11254;50.098;8.726;2023-11-19T23:00:30;14.40;;;1.80;;
22176;SDS011;11254;50.098;8.726;2023-11-19T23:03:01;10.70;;;2.42;;
22176;SDS011;11254;50.098;8.726;2023-11-19T23:05:31;13.50;;;2.20;;
22176;SDS011;11254;50.098;8.726;2023-11-19T23:08:02;12.35;;;1.88;;
22176;SDS011;11254;50.098;8.726;2023-11-19T23:10:34;11.27;;;2.45;;
22176;SDS011;11254;50.098;8.726;2023-11-19T23:13:03;10.82;;;1.88;;
22176;SDS011;11254;50.098;8.726;2023-11-19T23:15:32;14.02;;;2.13;;
22176;SDS011;11254;50.098;8.726;2023-11-19T23:18:03;10.13;;;1.85;;
22176;SDS011;11254;50.098;8.726;2023-11-19T23:20:32;10.52;;;1.75;;
22176;SDS011;11254;50.098;8.726;2023-11-19T23:23:01;13.40;;;2.00;;
22176;SDS011;11254;50.098;8.726;2023-11-19T23:25:30;15.65;;;2.22;;
22176;SDS011;11254;50.098;8.726;2023-11-19T23:27:59;13.40;;;1.95;;
22176;SDS011;11254;50.098;8.726;2023-11-19T23:30:28;11.27;;;1.67;;
22176;SDS011;11254;50.098;8.726;2023-11-19T23:32:57;11.98;;;3.00;;
22176;SDS011;11254;50.098;8.726;2023-11-19T23:35:27;15.48;;;2.35;;
22176;SDS011;11254;50.098;8.726;2023-11-19T23:37:56;14.23;;;2.72;;
22176;SDS011;11254;50.098;8.726;2023-11-19T23:40:24;7.78;;;1.70;;
22176;SDS011;11254;50.098;8.726;2023-11-19T23:42:53;10.50;;;2.33;;
22176;SDS011;11254;50.098;8.726;2023-11-19T23:45:23;12.18;;;2.25;;
22176;SDS011;11254;50.098;8.726;2023-11-19T23:47:51;14.93;;;2.38;;
22176;SDS011;11254;50.098;8.726;2023-11-19T23:50:20;12.15;;;1.90;;
22176;SDS011;11254;50.098;8.726;2023-11-19T23:52:50;9.85;;;1.63;;
22176;SDS011;11254;50.098;8.726;2023-11-19T23:55:20;10.30;;;1.70;;
22176;SDS011;11254;50.098;8.726;2023-11-19T23:57:49;12.55;;;1.95;;
